Time;durP1;ratioP1;P1;durP2;ratioP2;P2;SDS_P1;SDS_P2;PMS_P1;PMS_P2;Temp;Humidity;BMP_temperature;BMP_pressure;BME280_temperature;BME280_humidity;BME280_pressure;Samples;Min_cycle;Max_cycle;Signal;HPM_P1;HPM_P2
2023/05/18 00:01:54;;;;;;;;;;;;;;;;;;5043665;28;19916;-71
2023/05/18 00:04:22;;;;;;;;;;;;;;;;;;5045286;28;19924;-70
2023/05/18 00:06:48;;;;;;;;;;;;;;;;;;5029984;28;19909;-70
2023/05/18 00:09:14;;;;;;;;;;;;;;;;;;5032599;28;19922;-72
2023/05/18 00:11:40;;;;;;;;;;;;;;;;;;5044811;28;19948;-71
2023/05/18 00:14:07;;;;;;;;;;;;;;;;;;5012122;28;19948;-71
2023/05/18 00:16:33;;;;;;;;;;;;;;;;;;5032705;28;19921;-71
2023/05/18 00:18:59;;;;;;;;;;;;;;;;;;5017676;28;19924;-69
2023/05/18 00:21:29;;;;;;;;;;;;;;;;;;5031625;28;19921;-71
2023/05/18 00:23:55;;;;;;;;;;;;;;;;;;5023500;28;19913;-71
2023/05/18 00:26:22;;;;;;;;;;;;;;;;;;5033847;28;20004;-71
2023/05/18 00:28:48;;;;;;;;;;;;;;;;;;5012787;28;19917;-71
2023/05/18 00:31:15;;;;;;;;;;;;;;;;;;5027985;28;19925;-70
2023/05/18 00:33:41;;;;;;;;;;;;;;;;;;5009237;28;19913;-71
2023/05/18 00:36:07;;;;;;;;;;;;;;;;;;5026726;28;19917;-71
2023/05/18 00:38:33;;;;;;;;;;;;;;;;;;5026673;28;20275;-71
2023/05/18 00:40:59;;;;;;;;;;;;;;;;;;5029233;28;19917;-71
2023/05/18 00:43:25;;;;;;;;;;;;;;;;;;5009259;28;19949;-71
2023/05/18 00:45:51;;;;;;;;;;;;;;;;;;5027020;28;19917;-70
2023/05/18 00:48:17;;;;;;;;;;;;;;;;;;5031334;28;20329;-70
2023/05/18 00:50:44;;;;;;;;;;;;;;;;;;5031350;28;19917;-71
2023/05/18 00:53:10;;;;;;;;;;;;;;;;;;5026681;28;19951;-71
2023/05/18 00:55:36;;;;;;;;;;;;;;;;;;5028412;28;20379;-71
2023/05/18 00:58:04;;;;;;;;;;;;;;;;;;5009176;28;20354;-71
2023/05/18 01:00:30;;;;;;;;;;;;;;;;;;5008577;28;19956;-71
2023/05/18 01:02:56;;;;;;;;;;;;;;;;;;5023115;28;19914;-72
2023/05/18 01:05:22;;;;;;;;;;;;;;;;;;5027461;28;19913;-71
2023/05/18 01:07:49;;;;;;;;;;;;;;;;;;5003444;28;19944;-72
2023/05/18 01:10:15;;;;;;;;;;;;;;;;;;5020915;28;20378;-71
2023/05/18 01:12:41;;;;;;;;;;;;;;;;;;5013881;28;19913;-72
2023/05/18 01:15:07;;;;;;;;;;;;;;;;;;5010743;28;19967;-71
2023/05/18 01:17:33;;;;;;;;;;;;;;;;;;5013057;28;19921;-71
2023/05/18 01:19:59;;;;;;;;;;;;;;;;;;5021923;28;19917;-72
2023/05/18 01:22:28;;;;;;;;;;;;;;;;;;5004470;28;19939;-71
2023/05/18 01:24:54;;;;;;;;;;;;;;;;;;5027597;28;19913;-71
2023/05/18 01:27:20;;;;;;;;;;;;;;;;;;5027505;28;20004;-71
2023/05/18 01:29:46;;;;;;;;;;;;;;;;;;5009699;28;20012;-71
2023/05/18 01:32:13;;;;;;;;;;;;;;;;;;5009027;28;19913;-71
2023/05/18 01:34:39;;;;;;;;;;;;;;;;;;5027773;28;19913;-70
2023/05/18 01:37:05;;;;;;;;;;;;;;;;;;5030719;28;20051;-69
2023/05/18 01:39:31;;;;;;;;;;;;;;;;;;5029700;28;19917;-72
2023/05/18 01:41:57;;;;;;;;;;;;;;;;;;5027470;28;20016;-72
2023/05/18 01:44:24;;;;;;;;;;;;;;;;;;5009268;28;19913;-71
2023/05/18 01:46:50;;;;;;;;;;;;;;;;;;5009723;28;20402;-71
2023/05/18 01:49:16;;;;;;;;;;;;;;;;;;5025985;28;20432;-72
2023/05/18 01:51:42;;;;;;;;;;;;;;;;;;5023388;28;20055;-72
2023/05/18 01:54:08;;;;;;;;;;;;;;;;;;5006404;28;19974;-73
2023/05/18 01:56:36;;;;;;;;;;;;;;;;;;5008318;28;19920;-72
2023/05/18 01:59:02;;;;;;;;;;;;;;;;;;5011213;28;19914;-73
2023/05/18 02:01:28;;;;;;;;;;;;;;;;;;5014193;28;19927;-71
2023/05/18 02:03:55;;;;;;;;;;;;;;;;;;5010379;28;19917;-72
2023/05/18 02:06:21;;;;;;;;;;;;;;;;;;5024872;28;19973;-71
2023/05/18 02:08:47;;;;;;;;;;;;;;;;;;5007987;28;19975;-71
2023/05/18 02:11:13;;;;;;;;;;;;;;;;;;5007753;28;20000;-71
2023/05/18 02:13:39;;;;;;;;;;;;;;;;;;5003250;28;20298;-71
2023/05/18 02:16:05;;;;;;;;;;;;;;;;;;5009330;28;20063;-70
2023/05/18 02:18:35;;;;;;;;;;;;;;;;;;5006211;28;20104;-72
2023/05/18 02:21:01;;;;;;;;;;;;;;;;;;5023081;28;19924;-71
2023/05/18 02:23:27;;;;;;;;;;;;;;;;;;5014048;28;20329;-72
2023/05/18 02:25:56;;;;;;;;;;;;;;;;;;5013566;28;19917;-71
2023/05/18 02:28:23;;;;;;;;;;;;;;;;;;5010284;28;19920;-71
2023/05/18 02:30:49;;;;;;;;;;;;;;;;;;5008364;28;19917;-70
2023/05/18 02:33:16;;;;;;;;;;;;;;;;;;5003969;28;19914;-71
2023/05/18 02:35:42;;;;;;;;;;;;;;;;;;5006833;28;19984;-72
2023/05/18 02:38:08;;;;;;;;;;;;;;;;;;5024589;28;19952;-72
2023/05/18 02:40:34;;;;;;;;;;;;;;;;;;5022365;28;19963;-72
2023/05/18 02:43:00;;;;;;;;;;;;;;;;;;5009482;28;20250;-71
2023/05/18 02:45:28;;;;;;;;;;;;;;;;;;5016002;28;20279;-73
2023/05/18 02:47:55;;;;;;;;;;;;;;;;;;5017789;28;19968;-71
2023/05/18 02:50:21;;;;;;;;;;;;;;;;;;5011983;28;19959;-72
2023/05/18 02:52:48;;;;;;;;;;;;;;;;;;5028023;28;19913;-72
2023/05/18 02:55:16;;;;;;;;;;;;;;;;;;5010332;28;20678;-72
2023/05/18 02:58:04;;;;;;;;;;;;;;;;;;5023717;28;20397;-72
2023/05/18 03:00:51;;;;;;;;;;;;;;;;;;5028218;28;19924;-71
2023/05/18 03:03:17;;;;;;;;;;;;;;;;;;5012415;28;19913;-72
2023/05/18 03:05:45;;;;;;;;;;;;;;;;;;5014373;28;19921;-72
2023/05/18 03:08:11;;;;;;;;;;;;;;;;;;5033199;28;19917;-73
2023/05/18 03:10:37;;;;;;;;;;;;;;;;;;5016643;28;19921;-71
2023/05/18 03:13:03;;;;;;;;;;;;;;;;;;5011290;28;20412;-71
2023/05/18 03:15:30;;;;;;;;;;;;;;;;;;5028112;28;20008;-71
2023/05/18 03:17:59;;;;;;;;;;;;;;;;;;5009019;28;19925;-72
2023/05/18 03:20:26;;;;;;;;;;;;;;;;;;5010884;28;19963;-72
2023/05/18 03:22:52;;;;;;;;;;;;;;;;;;5011956;28;19928;-71
2023/05/18 03:25:18;;;;;;;;;;;;;;;;;;5010229;28;20505;-71
2023/05/18 03:27:45;;;;;;;;;;;;;;;;;;5009817;28;19917;-70
2023/05/18 03:30:12;;;;;;;;;;;;;;;;;;5013443;28;20047;-71
2023/05/18 03:32:38;;;;;;;;;;;;;;;;;;5014163;28;20014;-71
2023/05/18 03:35:04;;;;;;;;;;;;;;;;;;5011671;28;20354;-70
2023/05/18 03:37:30;;;;;;;;;;;;;;;;;;5009054;28;19921;-72
2023/05/18 03:39:56;;;;;;;;;;;;;;;;;;5026939;28;19925;-71
2023/05/18 03:42:22;;;;;;;;;;;;;;;;;;5010227;28;19919;-71
2023/05/18 03:44:48;;;;;;;;;;;;;;;;;;5011213;28;20047;-71
2023/05/18 03:47:14;;;;;;;;;;;;;;;;;;5013006;28;20008;-72
2023/05/18 03:49:40;;;;;;;;;;;;;;;;;;5009779;28;20068;-75
2023/05/18 03:52:06;;;;;;;;;;;;;;;;;;5017443;28;20384;-72
2023/05/18 03:54:33;;;;;;;;;;;;;;;;;;5012419;28;19939;-71
2023/05/18 03:56:59;;;;;;;;;;;;;;;;;;5015566;28;19917;-72
2023/05/18 03:59:25;;;;;;;;;;;;;;;;;;5011890;28;19917;-73
2023/05/18 04:01:52;;;;;;;;;;;;;;;;;;5012607;28;19925;-72
2023/05/18 04:04:22;;;;;;;;;;;;;;;;;;5044770;28;19917;-71
2023/05/18 04:06:48;;;;;;;;;;;;;;;;;;5032671;28;19917;-70
2023/05/18 04:09:16;;;;;;;;;;;;;;;;;;5035119;28;19996;-71
2023/05/18 04:11:42;;;;;;;;;;;;;;;;;;5045930;28;19921;-68
2023/05/18 04:14:09;;;;;;;;;;;;;;;;;;5044532;28;19924;-68
2023/05/18 04:16:35;;;;;;;;;;;;;;;;;;5020488;28;20359;-69
2023/05/18 04:19:02;;;;;;;;;;;;;;;;;;5038287;28;19924;-69
2023/05/18 04:21:34;;;;;;;;;;;;;;;;;;5046531;28;19924;-69
2023/05/18 04:24:05;;;;;;;;;;;;;;;;;;5044111;28;19919;-68
2023/05/18 04:26:31;;;;;;;;;;;;;;;;;;5028568;28;20216;-69
2023/05/18 04:28:59;;;;;;;;;;;;;;;;;;5010943;28;20361;-69
2023/05/18 04:31:26;;;;;;;;;;;;;;;;;;5030035;28;19928;-69
2023/05/18 04:33:53;;;;;;;;;;;;;;;;;;5012134;28;19936;-69
2023/05/18 04:36:19;;;;;;;;;;;;;;;;;;5026264;28;19917;-68
2023/05/18 04:38:46;;;;;;;;;;;;;;;;;;5007688;28;20469;-69
2023/05/18 04:41:12;;;;;;;;;;;;;;;;;;5009104;28;20258;-69
2023/05/18 04:43:38;;;;;;;;;;;;;;;;;;5009267;28;19917;-70
2023/05/18 04:46:05;;;;;;;;;;;;;;;;;;5026525;28;20000;-68
2023/05/18 04:48:32;;;;;;;;;;;;;;;;;;5023909;28;19925;-69
2023/05/18 04:51:03;;;;;;;;;;;;;;;;;;5007186;28;19941;-69
2023/05/18 04:53:32;;;;;;;;;;;;;;;;;;5011599;28;19913;-70
2023/05/18 04:56:01;;;;;;;;;;;;;;;;;;5040814;28;19917;-68
2023/05/18 04:58:29;;;;;;;;;;;;;;;;;;5023464;28;20242;-69
2023/05/18 05:00:55;;;;;;;;;;;;;;;;;;5023928;28;19923;-68
2023/05/18 05:03:21;;;;;;;;;;;;;;;;;;5009977;28;19924;-69
2023/05/18 05:05:47;;;;;;;;;;;;;;;;;;5020524;28;19913;-69
2023/05/18 05:08:13;;;;;;;;;;;;;;;;;;4991013;28;19914;-69
2023/05/18 05:10:39;;;;;;;;;;;;;;;;;;5009050;28;19967;-69
2023/05/18 05:13:05;;;;;;;;;;;;;;;;;;5024802;28;20426;-68
2023/05/18 05:15:31;;;;;;;;;;;;;;;;;;5023673;28;19966;-69
2023/05/18 05:17:57;;;;;;;;;;;;;;;;;;5009148;28;19979;-68
2023/05/18 05:20:23;;;;;;;;;;;;;;;;;;5026674;28;19975;-68
2023/05/18 05:22:49;;;;;;;;;;;;;;;;;;5008102;28;19913;-69
2023/05/18 05:25:21;;;;;;;;;;;;;;;;;;5024560;28;19917;-68
2023/05/18 05:27:47;;;;;;;;;;;;;;;;;;5009541;28;20011;-68
2023/05/18 05:30:13;;;;;;;;;;;;;;;;;;5004525;28;19918;-67
2023/05/18 05:32:41;;;;;;;;;;;;;;;;;;5007346;28;19920;-68
2023/05/18 05:35:07;;;;;;;;;;;;;;;;;;5025272;28;19971;-68
2023/05/18 05:37:34;;;;;;;;;;;;;;;;;;5007855;28;20011;-68
2023/05/18 05:40:00;;;;;;;;;;;;;;;;;;5009693;28;20359;-69
2023/05/18 05:42:28;;;;;;;;;;;;;;;;;;5009652;28;19935;-68
2023/05/18 05:44:54;;;;;;;;;;;;;;;;;;5006791;28;20044;-69
2023/05/18 05:47:21;;;;;;;;;;;;;;;;;;5009115;28;19917;-69
2023/05/18 05:49:48;;;;;;;;;;;;;;;;;;5005706;28;19921;-69
2023/05/18 05:52:14;;;;;;;;;;;;;;;;;;5007729;28;20344;-70
2023/05/18 05:54:40;;;;;;;;;;;;;;;;;;5009350;28;19920;-68
2023/05/18 05:57:06;;;;;;;;;;;;;;;;;;5008548;28;19925;-71
2023/05/18 05:59:32;;;;;;;;;;;;;;;;;;5023518;28;19924;-70
2023/05/18 06:01:58;;;;;;;;;;;;;;;;;;4993612;28;19925;-70
2023/05/18 06:04:25;;;;;;;;;;;;;;;;;;5008163;28;19913;-69
2023/05/18 06:06:51;;;;;;;;;;;;;;;;;;5008509;28;19917;-69
2023/05/18 06:09:17;;;;;;;;;;;;;;;;;;5005417;28;19921;-70
2023/05/18 06:11:45;;;;;;;;;;;;;;;;;;5018246;28;19920;-69
2023/05/18 06:14:11;;;;;;;;;;;;;;;;;;5008700;28;19913;-70
2023/05/18 06:16:37;;;;;;;;;;;;;;;;;;5006854;28;19913;-70
2023/05/18 06:19:03;;;;;;;;;;;;;;;;;;5007394;28;19953;-70
2023/05/18 06:21:30;;;;;;;;;;;;;;;;;;5013861;28;19916;-68
2023/05/18 06:23:57;;;;;;;;;;;;;;;;;;5015438;28;19947;-69
2023/05/18 06:26:46;;;;;;;;;;;;;;;;;;5026596;28;20367;-70
2023/05/18 06:29:30;;;;;;;;;;;;;;;;;;5026361;28;20011;-68
2023/05/18 06:32:32;;;;;;;;;;;;;;;;;;4966128;28;20000;-69
2023/05/18 06:34:58;;;;;;;;;;;;;;;;;;5003678;28;20520;-68
2023/05/18 06:37:24;;;;;;;;;;;;;;;;;;5041526;28;19924;-70
2023/05/18 06:39:50;;;;;;;;;;;;;;;;;;5024169;28;19924;-69
2023/05/18 06:42:16;;;;;;;;;;;;;;;;;;5026087;28;19913;-68
2023/05/18 06:45:00;;;;;;;;;;;;;;;;;;5009168;28;19913;-70
2023/05/18 06:47:47;;;;;;;;;;;;;;;;;;5023424;28;20381;-69
2023/05/18 06:50:13;;;;;;;;;;;;;;;;;;4990563;28;19921;-69
2023/05/18 06:52:39;;;;;;;;;;;;;;;;;;5020836;28;19919;-70
2023/05/18 06:55:06;;;;;;;;;;;;;;;;;;5023481;28;20294;-69
2023/05/18 06:57:32;;;;;;;;;;;;;;;;;;5008520;28;19913;-70
2023/05/18 06:59:58;;;;;;;;;;;;;;;;;;5022467;28;20457;-69
2023/05/18 07:02:25;;;;;;;;;;;;;;;;;;5024787;28;19989;-70
2023/05/18 07:04:51;;;;;;;;;;;;;;;;;;5016641;28;20293;-68
2023/05/18 07:07:17;;;;;;;;;;;;;;;;;;5035018;28;20446;-70
2023/05/18 07:09:44;;;;;;;;;;;;;;;;;;5029516;28;20004;-71
2023/05/18 07:12:10;;;;;;;;;;;;;;;;;;5027788;28;20396;-69
2023/05/18 07:14:36;;;;;;;;;;;;;;;;;;5025447;28;19935;-69
2023/05/18 07:17:02;;;;;;;;;;;;;;;;;;5029928;28;19914;-69
2023/05/18 07:19:28;;;;;;;;;;;;;;;;;;5026180;28;19925;-68
2023/05/18 07:21:55;;;;;;;;;;;;;;;;;;5027671;28;19928;-69
2023/05/18 07:24:21;;;;;;;;;;;;;;;;;;5023546;28;19999;-69
2023/05/18 07:26:47;;;;;;;;;;;;;;;;;;5027980;28;19956;-69
2023/05/18 07:29:13;;;;;;;;;;;;;;;;;;5025308;28;19943;-69
2023/05/18 07:31:39;;;;;;;;;;;;;;;;;;5033756;28;20433;-69
2023/05/18 07:34:06;;;;;;;;;;;;;;;;;;5034334;28;20262;-69
2023/05/18 07:36:32;;;;;;;;;;;;;;;;;;5016159;28;19917;-69
2023/05/18 07:38:58;;;;;;;;;;;;;;;;;;5033340;28;19917;-68
2023/05/18 07:41:26;;;;;;;;;;;;;;;;;;5013632;28;20680;-69
2023/05/18 07:43:52;;;;;;;;;;;;;;;;;;4998409;28;19920;-69
2023/05/18 07:46:18;;;;;;;;;;;;;;;;;;5022980;28;19917;-68
2023/05/18 07:48:45;;;;;;;;;;;;;;;;;;5027388;28;19940;-69
2023/05/18 07:51:11;;;;;;;;;;;;;;;;;;5010886;28;19968;-69
2023/05/18 07:53:37;;;;;;;;;;;;;;;;;;5028822;28;19917;-70
2023/05/18 07:56:03;;;;;;;;;;;;;;;;;;5019771;28;19913;-68
2023/05/18 07:58:29;;;;;;;;;;;;;;;;;;5026288;28;19921;-69
2023/05/18 08:00:55;;;;;;;;;;;;;;;;;;5018980;28;19921;-69
2023/05/18 08:03:21;;;;;;;;;;;;;;;;;;5021145;28;19913;-70
2023/05/18 08:05:47;;;;;;;;;;;;;;;;;;5026702;28;20337;-68
2023/05/18 08:08:17;;;;;;;;;;;;;;;;;;5004030;28;20378;-69
2023/05/18 08:10:43;;;;;;;;;;;;;;;;;;5022228;28;19929;-70
2023/05/18 08:13:09;;;;;;;;;;;;;;;;;;5024688;28;19975;-69
2023/05/18 08:15:37;;;;;;;;;;;;;;;;;;5026102;28;19913;-69
2023/05/18 08:18:03;;;;;;;;;;;;;;;;;;5026038;28;20271;-69
2023/05/18 08:20:29;;;;;;;;;;;;;;;;;;5026893;28;19921;-69
2023/05/18 08:22:55;;;;;;;;;;;;;;;;;;5025500;28;19922;-69
2023/05/18 08:25:21;;;;;;;;;;;;;;;;;;5025741;28;19952;-70
2023/05/18 08:27:47;;;;;;;;;;;;;;;;;;5027070;28;20298;-69
2023/05/18 08:30:13;;;;;;;;;;;;;;;;;;5008556;28;19917;-68
2023/05/18 08:32:39;;;;;;;;;;;;;;;;;;5020593;28;20008;-68
2023/05/18 08:35:07;;;;;;;;;;;;;;;;;;5026420;28;20516;-68
2023/05/18 08:37:33;;;;;;;;;;;;;;;;;;5004287;28;19917;-68
2023/05/18 08:39:59;;;;;;;;;;;;;;;;;;5031318;28;19917;-69
2023/05/18 08:42:25;;;;;;;;;;;;;;;;;;5034268;28;19913;-68
2023/05/18 08:44:51;;;;;;;;;;;;;;;;;;5033985;28;19979;-68
2023/05/18 08:47:18;;;;;;;;;;;;;;;;;;5038211;28;19956;-67
2023/05/18 08:49:44;;;;;;;;;;;;;;;;;;5035592;28;19913;-67
2023/05/18 08:52:10;;;;;;;;;;;;;;;;;;5015492;28;19913;-68
2023/05/18 08:54:36;;;;;;;;;;;;;;;;;;5031743;28;19917;-69
2023/05/18 08:57:02;;;;;;;;;;;;;;;;;;5020180;28;19913;-69
2023/05/18 08:59:28;;;;;;;;;;;;;;;;;;5030841;28;19917;-68
2023/05/18 09:01:54;;;;;;;;;;;;;;;;;;5036446;28;20008;-69
2023/05/18 09:04:21;;;;;;;;;;;;;;;;;;5033133;28;19939;-67
2023/05/18 09:06:47;;;;;;;;;;;;;;;;;;5031061;28;19920;-67
2023/05/18 09:09:13;;;;;;;;;;;;;;;;;;5026579;28;19929;-68
2023/05/18 09:11:39;;;;;;;;;;;;;;;;;;5010828;28;20275;-68
2023/05/18 09:14:05;;;;;;;;;;;;;;;;;;4999563;28;19959;-68
2023/05/18 09:16:32;;;;;;;;;;;;;;;;;;5012181;28;20326;-68
2023/05/18 09:18:58;;;;;;;;;;;;;;;;;;5011139;28;19994;-68
2023/05/18 09:21:25;;;;;;;;;;;;;;;;;;5013058;28;20433;-68
2023/05/18 09:23:51;;;;;;;;;;;;;;;;;;5017404;28;19952;-67
2023/05/18 09:26:17;;;;;;;;;;;;;;;;;;5010424;28;20374;-68
2023/05/18 09:28:44;;;;;;;;;;;;;;;;;;5017375;28;19920;-67
2023/05/18 09:31:13;;;;;;;;;;;;;;;;;;5030418;28;19921;-68
2023/05/18 09:33:39;;;;;;;;;;;;;;;;;;4993840;28;19924;-68
2023/05/18 09:36:05;;;;;;;;;;;;;;;;;;5010978;28;19917;-67
2023/05/18 09:38:31;;;;;;;;;;;;;;;;;;5010920;28;19918;-67
2023/05/18 09:40:59;;;;;;;;;;;;;;;;;;5013660;28;19918;-68
2023/05/18 09:43:25;;;;;;;;;;;;;;;;;;5004084;28;20300;-68
2023/05/18 09:45:51;;;;;;;;;;;;;;;;;;5010783;28;20234;-68
2023/05/18 09:48:17;;;;;;;;;;;;;;;;;;5008803;28;19913;-68
2023/05/18 09:50:43;;;;;;;;;;;;;;;;;;5011089;28;19921;-69
2023/05/18 09:53:09;;;;;;;;;;;;;;;;;;5005282;28;20052;-68
2023/05/18 09:55:36;;;;;;;;;;;;;;;;;;5008735;28;19968;-68
2023/05/18 09:58:03;;;;;;;;;;;;;;;;;;5022845;28;20243;-68
2023/05/18 10:00:29;;;;;;;;;;;;;;;;;;5012791;28;20383;-68
2023/05/18 10:02:55;;;;;;;;;;;;;;;;;;5010248;28;19919;-69
2023/05/18 10:05:21;;;;;;;;;;;;;;;;;;5009849;28;19913;-68
2023/05/18 10:07:47;;;;;;;;;;;;;;;;;;5026253;28;19937;-68
2023/05/18 10:10:15;;;;;;;;;;;;;;;;;;5022205;28;21444;-68
2023/05/18 10:12:41;;;;;;;;;;;;;;;;;;5033922;28;19913;-68
2023/05/18 10:15:07;;;;;;;;;;;;;;;;;;5028639;28;19919;-67
2023/05/18 10:17:33;;;;;;;;;;;;;;;;;;5030592;28;19938;-68
2023/05/18 10:19:59;;;;;;;;;;;;;;;;;;5029689;28;19917;-68
2023/05/18 10:22:25;;;;;;;;;;;;;;;;;;5012049;28;20011;-68
2023/05/18 10:24:51;;;;;;;;;;;;;;;;;;5034502;28;20048;-68
2023/05/18 10:27:17;;;;;;;;;;;;;;;;;;5029500;28;20320;-68
2023/05/18 10:29:43;;;;;;;;;;;;;;;;;;5027614;28;20394;-69
2023/05/18 10:32:10;;;;;;;;;;;;;;;;;;5029307;28;19947;-68
2023/05/18 10:34:36;;;;;;;;;;;;;;;;;;5013638;28;19917;-69
2023/05/18 10:37:03;;;;;;;;;;;;;;;;;;5011197;28;19913;-68
2023/05/18 10:39:29;;;;;;;;;;;;;;;;;;5030302;28;19917;-68
2023/05/18 10:41:55;;;;;;;;;;;;;;;;;;5010809;28;19914;-68
2023/05/18 10:44:21;;;;;;;;;;;;;;;;;;5013035;28;19913;-67
2023/05/18 10:46:47;;;;;;;;;;;;;;;;;;5029401;28;19950;-67
2023/05/18 10:49:14;;;;;;;;;;;;;;;;;;5013387;28;19996;-68
2023/05/18 10:51:41;;;;;;;;;;;;;;;;;;5028365;28;19924;-68
2023/05/18 10:54:07;;;;;;;;;;;;;;;;;;4995256;28;20104;-68
2023/05/18 10:56:36;;;;;;;;;;;;;;;;;;5029365;28;20275;-67
2023/05/18 10:59:02;;;;;;;;;;;;;;;;;;5035772;28;19913;-67
2023/05/18 11:01:28;;;;;;;;;;;;;;;;;;5015321;28;19957;-67
2023/05/18 11:03:54;;;;;;;;;;;;;;;;;;5024243;28;20412;-68
2023/05/18 11:06:21;;;;;;;;;;;;;;;;;;5015191;28;19953;-69
2023/05/18 11:08:47;;;;;;;;;;;;;;;;;;5033676;28;19917;-69
2023/05/18 11:11:14;;;;;;;;;;;;;;;;;;5038903;28;20096;-67
2023/05/18 11:13:40;;;;;;;;;;;;;;;;;;5032078;28;20086;-69
2023/05/18 11:16:06;;;;;;;;;;;;;;;;;;5033175;28;20009;-68
2023/05/18 11:18:32;;;;;;;;;;;;;;;;;;5033180;28;19936;-68
2023/05/18 11:20:58;;;;;;;;;;;;;;;;;;5022661;28;19917;-67
2023/05/18 11:23:24;;;;;;;;;;;;;;;;;;5032793;28;20386;-67
2023/05/18 11:25:50;;;;;;;;;;;;;;;;;;5033454;28;19999;-68
2023/05/18 11:28:16;;;;;;;;;;;;;;;;;;5031987;28;19917;-68
2023/05/18 11:30:43;;;;;;;;;;;;;;;;;;5033470;28;19913;-68
2023/05/18 11:33:09;;;;;;;;;;;;;;;;;;5033173;28;19925;-68
2023/05/18 11:35:36;;;;;;;;;;;;;;;;;;5033038;28;19913;-68
2023/05/18 11:38:02;;;;;;;;;;;;;;;;;;5031893;28;19936;-69
2023/05/18 11:40:28;;;;;;;;;;;;;;;;;;5036693;28;20454;-69
2023/05/18 11:42:54;;;;;;;;;;;;;;;;;;5035753;28;20206;-69
2023/05/18 11:45:20;;;;;;;;;;;;;;;;;;5037848;28;20393;-70
2023/05/18 11:47:46;;;;;;;;;;;;;;;;;;5015087;28;19913;-69
2023/05/18 11:50:12;;;;;;;;;;;;;;;;;;5030840;28;19917;-69
2023/05/18 11:52:38;;;;;;;;;;;;;;;;;;5031875;28;20055;-69
2023/05/18 11:55:05;;;;;;;;;;;;;;;;;;5033193;28;19913;-70
2023/05/18 11:57:31;;;;;;;;;;;;;;;;;;5038698;28;19913;-70
2023/05/18 11:59:57;;;;;;;;;;;;;;;;;;5041241;28;19966;-70
2023/05/18 12:02:23;;;;;;;;;;;;;;;;;;5016851;28;19913;-69
2023/05/18 12:04:50;;;;;;;;;;;;;;;;;;5032031;28;20345;-68
2023/05/18 12:07:16;;;;;;;;;;;;;;;;;;5032722;28;19920;-69
2023/05/18 12:09:42;;;;;;;;;;;;;;;;;;5036973;28;20008;-68
2023/05/18 12:12:10;;;;;;;;;;;;;;;;;;5029580;28;19932;-68
2023/05/18 12:14:36;;;;;;;;;;;;;;;;;;5033008;28;19935;-68
2023/05/18 12:17:02;;;;;;;;;;;;;;;;;;5032495;28;19923;-68
2023/05/18 12:19:28;;;;;;;;;;;;;;;;;;5032926;28;19913;-68
2023/05/18 12:21:54;;;;;;;;;;;;;;;;;;5038014;28;20011;-68
2023/05/18 12:24:20;;;;;;;;;;;;;;;;;;5015512;28;20415;-69
2023/05/18 12:26:46;;;;;;;;;;;;;;;;;;5032039;28;19920;-69
2023/05/18 12:29:18;;;;;;;;;;;;;;;;;;5030291;28;20378;-68
2023/05/18 12:31:44;;;;;;;;;;;;;;;;;;5030652;28;19912;-68
2023/05/18 12:34:10;;;;;;;;;;;;;;;;;;5013317;28;20008;-69
2023/05/18 12:36:36;;;;;;;;;;;;;;;;;;5032063;28;19935;-68
2023/05/18 12:39:02;;;;;;;;;;;;;;;;;;5032529;28;20011;-68
2023/05/18 12:41:28;;;;;;;;;;;;;;;;;;5029361;28;19971;-69
2023/05/18 12:43:55;;;;;;;;;;;;;;;;;;5014303;28;19952;-69
2023/05/18 12:46:21;;;;;;;;;;;;;;;;;;5035316;28;19916;-69
2023/05/18 12:48:48;;;;;;;;;;;;;;;;;;5037446;28;19954;-69
2023/05/18 12:51:13;;;;;;;;;;;;;;;;;;5029061;28;19917;-69
2023/05/18 12:53:40;;;;;;;;;;;;;;;;;;5034128;28;20012;-70
2023/05/18 12:56:10;;;;;;;;;;;;;;;;;;5042434;28;19968;-69
2023/05/18 12:58:36;;;;;;;;;;;;;;;;;;5031081;28;19913;-68
2023/05/18 13:01:02;;;;;;;;;;;;;;;;;;5012359;28;19917;-69
2023/05/18 13:03:28;;;;;;;;;;;;;;;;;;5031369;28;20264;-68
2023/05/18 13:05:54;;;;;;;;;;;;;;;;;;5031001;28;19913;-69
2023/05/18 13:08:22;;;;;;;;;;;;;;;;;;5012359;28;19956;-69
2023/05/18 13:10:48;;;;;;;;;;;;;;;;;;5023612;28;19932;-69
2023/05/18 13:13:15;;;;;;;;;;;;;;;;;;5030179;28;19921;-69
2023/05/18 13:15:41;;;;;;;;;;;;;;;;;;5031935;28;19940;-69
2023/05/18 13:18:08;;;;;;;;;;;;;;;;;;5032001;28;20362;-69
2023/05/18 13:20:34;;;;;;;;;;;;;;;;;;5031126;28;19917;-69
2023/05/18 13:23:00;;;;;;;;;;;;;;;;;;5036500;28;19968;-69
2023/05/18 13:25:26;;;;;;;;;;;;;;;;;;5013032;28;19913;-69
2023/05/18 13:27:53;;;;;;;;;;;;;;;;;;5029216;28;20030;-68
2023/05/18 13:30:19;;;;;;;;;;;;;;;;;;5013126;28;19921;-68
2023/05/18 13:32:46;;;;;;;;;;;;;;;;;;5030634;28;19921;-69
2023/05/18 13:35:12;;;;;;;;;;;;;;;;;;5034260;28;19913;-68
2023/05/18 13:37:40;;;;;;;;;;;;;;;;;;5028595;28;20401;-69
2023/05/18 13:40:06;;;;;;;;;;;;;;;;;;5046618;28;19921;-68
2023/05/18 13:42:32;;;;;;;;;;;;;;;;;;5031543;28;19966;-69
2023/05/18 13:44:58;;;;;;;;;;;;;;;;;;5030522;28;19913;-69
2023/05/18 13:47:24;;;;;;;;;;;;;;;;;;5035855;28;19918;-69
2023/05/18 13:49:50;;;;;;;;;;;;;;;;;;5031006;28;20233;-69
2023/05/18 13:52:16;;;;;;;;;;;;;;;;;;5030612;28;19913;-68
2023/05/18 13:54:42;;;;;;;;;;;;;;;;;;5030224;28;20018;-69
2023/05/18 13:57:08;;;;;;;;;;;;;;;;;;5027589;28;19917;-68
2023/05/18 13:59:34;;;;;;;;;;;;;;;;;;5040452;28;19959;-68
2023/05/18 14:02:00;;;;;;;;;;;;;;;;;;5031131;28;19981;-68
2023/05/18 14:04:26;;;;;;;;;;;;;;;;;;5036978;28;20013;-69
2023/05/18 14:06:54;;;;;;;;;;;;;;;;;;5029608;28;19997;-68
2023/05/18 14:09:20;;;;;;;;;;;;;;;;;;5024912;28;19963;-69
2023/05/18 14:11:46;;;;;;;;;;;;;;;;;;5028455;28;20404;-69
2023/05/18 14:14:12;;;;;;;;;;;;;;;;;;5030295;28;19924;-70
2023/05/18 14:16:38;;;;;;;;;;;;;;;;;;5026821;28;20374;-70
2023/05/18 14:19:04;;;;;;;;;;;;;;;;;;5030529;28;20007;-70
2023/05/18 14:21:30;;;;;;;;;;;;;;;;;;5024632;28;20031;-70
2023/05/18 14:23:56;;;;;;;;;;;;;;;;;;5020771;28;19914;-70
2023/05/18 14:26:22;;;;;;;;;;;;;;;;;;5025066;28;19929;-71
2023/05/18 14:28:48;;;;;;;;;;;;;;;;;;5009454;28;19999;-70
2023/05/18 14:31:14;;;;;;;;;;;;;;;;;;5027582;28;20079;-72
2023/05/18 14:33:41;;;;;;;;;;;;;;;;;;5025997;28;20435;-71
2023/05/18 14:36:07;;;;;;;;;;;;;;;;;;5028963;28;20393;-73
2023/05/18 14:38:33;;;;;;;;;;;;;;;;;;5011288;28;19924;-71
2023/05/18 14:40:59;;;;;;;;;;;;;;;;;;5015983;28;19928;-71
2023/05/18 14:43:25;;;;;;;;;;;;;;;;;;5031351;28;19917;-71
2023/05/18 14:45:51;;;;;;;;;;;;;;;;;;5033684;28;19920;-72
2023/05/18 14:48:17;;;;;;;;;;;;;;;;;;5030976;28;20011;-71
2023/05/18 14:50:43;;;;;;;;;;;;;;;;;;5012578;28;19921;-72
2023/05/18 14:53:09;;;;;;;;;;;;;;;;;;5032238;28;19917;-72
2023/05/18 14:55:35;;;;;;;;;;;;;;;;;;5032803;28;19914;-72
2023/05/18 14:58:03;;;;;;;;;;;;;;;;;;5011749;28;19913;-72
2023/05/18 15:00:29;;;;;;;;;;;;;;;;;;5032459;28;19979;-71
2023/05/18 15:02:55;;;;;;;;;;;;;;;;;;5031103;28;20193;-71
2023/05/18 15:05:21;;;;;;;;;;;;;;;;;;5016299;28;19993;-71
2023/05/18 15:07:47;;;;;;;;;;;;;;;;;;5012745;28;19967;-71
2023/05/18 15:10:13;;;;;;;;;;;;;;;;;;5013511;28;19956;-71
2023/05/18 15:12:39;;;;;;;;;;;;;;;;;;5031882;28;20434;-70
2023/05/18 15:15:05;;;;;;;;;;;;;;;;;;5030137;28;19916;-71
2023/05/18 15:17:31;;;;;;;;;;;;;;;;;;5029583;28;19917;-71
2023/05/18 15:19:57;;;;;;;;;;;;;;;;;;5013823;28;20444;-71
2023/05/18 15:22:23;;;;;;;;;;;;;;;;;;5031918;28;19920;-70
2023/05/18 15:24:49;;;;;;;;;;;;;;;;;;5029958;28;19967;-72
2023/05/18 15:27:15;;;;;;;;;;;;;;;;;;5032753;28;19996;-72
2023/05/18 15:29:41;;;;;;;;;;;;;;;;;;5031311;28;19942;-72
2023/05/18 15:32:07;;;;;;;;;;;;;;;;;;5033276;28;20164;-73
2023/05/18 15:34:34;;;;;;;;;;;;;;;;;;5013204;28;19918;-70
2023/05/18 15:37:00;;;;;;;;;;;;;;;;;;5031654;28;19912;-71
2023/05/18 15:39:26;;;;;;;;;;;;;;;;;;5033992;28;20419;-70
2023/05/18 15:41:52;;;;;;;;;;;;;;;;;;5020831;28;19921;-72
2023/05/18 15:44:18;;;;;;;;;;;;;;;;;;5042747;28;20373;-72
2023/05/18 15:46:44;;;;;;;;;;;;;;;;;;5030068;28;20442;-71
2023/05/18 15:49:10;;;;;;;;;;;;;;;;;;5018558;28;19920;-70
2023/05/18 15:51:36;;;;;;;;;;;;;;;;;;5035086;28;19978;-71
2023/05/18 15:54:02;;;;;;;;;;;;;;;;;;5030244;28;19932;-71
2023/05/18 15:56:28;;;;;;;;;;;;;;;;;;5033746;28;19913;-70
2023/05/18 15:58:54;;;;;;;;;;;;;;;;;;5034733;28;19913;-71
2023/05/18 16:01:20;;;;;;;;;;;;;;;;;;5032538;28;19928;-71
2023/05/18 16:03:46;;;;;;;;;;;;;;;;;;5051004;28;19920;-71
2023/05/18 16:06:12;;;;;;;;;;;;;;;;;;5035792;28;19917;-70
2023/05/18 16:08:38;;;;;;;;;;;;;;;;;;5030708;28;20267;-70
2023/05/18 16:11:05;;;;;;;;;;;;;;;;;;5035014;28;19921;-70
2023/05/18 16:13:31;;;;;;;;;;;;;;;;;;5037345;28;20374;-70
2023/05/18 16:15:59;;;;;;;;;;;;;;;;;;5030556;28;19944;-71
2023/05/18 16:18:25;;;;;;;;;;;;;;;;;;5031472;28;19988;-72
2023/05/18 16:20:51;;;;;;;;;;;;;;;;;;5033721;28;19917;-72
2023/05/18 16:23:17;;;;;;;;;;;;;;;;;;5015343;28;20429;-71
2023/05/18 16:25:43;;;;;;;;;;;;;;;;;;5015764;28;19921;-72
2023/05/18 16:28:09;;;;;;;;;;;;;;;;;;5013858;28;19937;-71
2023/05/18 16:30:35;;;;;;;;;;;;;;;;;;5016363;28;19916;-72
2023/05/18 16:33:01;;;;;;;;;;;;;;;;;;5033899;28;19989;-72
2023/05/18 16:35:29;;;;;;;;;;;;;;;;;;5014793;28;20373;-72
2023/05/18 16:37:55;;;;;;;;;;;;;;;;;;5031131;28;20290;-71
2023/05/18 16:40:21;;;;;;;;;;;;;;;;;;5014951;28;19914;-70
2023/05/18 16:42:47;;;;;;;;;;;;;;;;;;5024336;28;19986;-69